メインページ
METAR-TAF:

METAR-TAF

空港 :

八戸航空基地

八戸, 日本

緯度: 40-33N, 経度: 141-28E, 海抜: 46m

現時点の気象観測

当レポートは33分前の08:35(UTC)に作成
の風 3kt
気温 1°C
湿度 93%
気圧 1018 hPa
視程: 3200m
高度800ftの雲はほとんどない
高度1200ftの千切れ雲あり
高度2500ftの千切れ雲あり
弱いにわか雪

METAR: RJSH 130835Z 18003KT 3200 -SHSN FEW008 BKN012 BKN025 01/M00 Q1018 RMK 2ST008 5ST012 7CU025 A3008

時間: 18:08 (09:08 UTC)


TAF: 見つかりません

4,000以上の空港の気象観測と天気予報(METAR報とTAF報)

利用可能な観測所は地図上に黄色い丸と赤い丸で示す。

丸の上にカーソルを重ねると観測所名を参照できる。

次にクリックすると気象観測と天気予報を参照できる。

マップの切り替え:黒色「×」印の緑ボタンをクリックして拡大、「-」印の緑ボタンをクリックして縮小、緑色の三角印をクリックして隣りの地図に切り替え


METAR-TAF: